createdAt,value
2019-02-11T00:00:33.001Z,994.31
2019-02-11T00:04:03.233Z,994.21
2019-02-11T00:07:33.232Z,994.34
2019-02-11T00:11:03.482Z,994.49
2019-02-11T00:14:33.698Z,994.62
2019-02-11T00:18:03.847Z,994.42
2019-02-11T00:21:34.016Z,994.41
2019-02-11T00:25:04.295Z,993.8
2019-02-11T00:28:34.355Z,993.97
2019-02-11T00:32:04.469Z,993.99
2019-02-11T00:35:34.594Z,994.01
2019-02-11T00:39:05.673Z,994.18
2019-02-11T00:42:35.831Z,994.14
2019-02-11T00:46:06.190Z,993.66
2019-02-11T00:49:36.391Z,993.89
2019-02-11T00:53:06.598Z,993.78
2019-02-11T00:56:37.538Z,993.41
2019-02-11T01:00:09.658Z,993.2
2019-02-11T01:03:39.746Z,992.64
2019-02-11T01:07:10.025Z,992.49
2019-02-11T01:10:40.195Z,992.44
2019-02-11T01:14:10.324Z,992.35
2019-02-11T01:17:40.433Z,992.13
2019-02-11T01:21:10.454Z,992.31
2019-02-11T01:24:40.440Z,992.36
2019-02-11T01:28:10.590Z,992.25
2019-02-11T01:31:40.738Z,992.44
2019-02-11T01:35:10.879Z,992.38
2019-02-11T01:38:40.848Z,992.12
2019-02-11T01:42:11.007Z,992.18
2019-02-11T01:45:41.106Z,992.02
2019-02-11T01:49:11.285Z,992.17
2019-02-11T01:52:41.306Z,992.59
2019-02-11T01:56:11.562Z,992.77
2019-02-11T01:59:42.712Z,993
2019-02-11T02:00:15.713Z,993.08
2019-02-11T02:03:45.800Z,992.86
2019-02-11T02:07:15.819Z,992.87
2019-02-11T02:10:46.079Z,993.06
2019-02-11T02:14:16.098Z,992.8
2019-02-11T02:17:46.246Z,993.13
2019-02-11T02:21:16.405Z,993.03
2019-02-11T02:24:46.644Z,992.83
2019-02-11T02:28:16.715Z,992.67
2019-02-11T02:31:46.854Z,992.41
2019-02-11T02:35:16.898Z,992.62
2019-02-11T02:38:47.102Z,992.95
2019-02-11T02:42:17.152Z,993.1
2019-02-11T02:45:47.322Z,993.47
2019-02-11T02:49:17.406Z,993.48
2019-02-11T02:52:47.499Z,993.5
2019-02-11T02:56:17.646Z,993.95
2019-02-11T02:59:48.787Z,994.42
2019-02-11T03:03:18.856Z,994.45
2019-02-11T03:06:49.102Z,994.89
2019-02-11T03:10:19.216Z,995.13
2019-02-11T03:13:49.492Z,995.09
2019-02-11T03:17:19.674Z,994.8
2019-02-11T03:20:49.811Z,994.75
2019-02-11T03:24:19.852Z,995.04
2019-02-11T03:27:49.978Z,995.37
2019-02-11T03:31:19.999Z,995.33
2019-02-11T03:34:50.249Z,995.4
2019-02-11T03:38:20.407Z,994.77
2019-02-11T03:41:50.795Z,994.72
2019-02-11T03:45:21.015Z,994.99
2019-02-11T03:48:51.214Z,995.19
2019-02-11T03:52:21.293Z,994.82
2019-02-11T03:55:51.572Z,994.66
2019-02-11T03:59:21.592Z,994.36
2019-02-11T04:00:15.949Z,994.61
2019-02-11T04:03:46.100Z,994.86
2019-02-11T04:07:16.150Z,995.17
2019-02-11T04:10:46.349Z,995.45
2019-02-11T04:14:24.598Z,995.49
2019-02-11T04:17:55.285Z,995.78
2019-02-11T04:21:25.296Z,995.7
2019-02-11T04:24:55.336Z,995.99
2019-02-11T04:28:25.475Z,995.96
2019-02-11T04:31:55.754Z,995.92
2019-02-11T04:35:25.872Z,996.02
2019-02-11T04:38:56.031Z,995.77
2019-02-11T04:42:26.240Z,995.37
2019-02-11T04:45:56.380Z,994.97
2019-02-11T04:49:26.541Z,994.62
2019-02-11T04:52:56.610Z,994.93
2019-02-11T04:56:26.747Z,995.09
2019-02-11T04:59:56.936Z,995.32
2019-02-11T05:03:27.995Z,995.14
2019-02-11T05:06:58.146Z,995.27
2019-02-11T05:10:28.295Z,995.52
2019-02-11T05:13:58.383Z,995.54
2019-02-11T05:17:28.483Z,995.89
2019-02-11T05:20:58.563Z,996.15
2019-02-11T05:24:28.541Z,996.32
2019-02-11T05:27:58.702Z,996.68
2019-02-11T05:31:28.744Z,996.21
2019-02-11T05:34:58.889Z,996.25
2019-02-11T05:38:29.007Z,996.54
2019-02-11T05:41:59.090Z,996.93
2019-02-11T05:45:29.156Z,997.1
2019-02-11T05:48:59.350Z,997.16
2019-02-11T05:52:29.504Z,997.53
2019-02-11T05:55:59.726Z,998.05
2019-02-11T05:59:29.802Z,998.08
2019-02-11T06:00:17.823Z,997.91
2019-02-11T06:03:48.952Z,998.16
2019-02-11T06:07:19.005Z,998.81
2019-02-11T06:10:49.289Z,999.47
2019-02-11T06:14:19.428Z,1000.01
2019-02-11T06:17:49.679Z,999.86
2019-02-11T06:21:19.709Z,999.95
2019-02-11T06:24:49.827Z,999.87
2019-02-11T06:28:19.895Z,1000.14
2019-02-11T06:31:50.090Z,1000.48
2019-02-11T06:35:20.237Z,1000.91
2019-02-11T06:38:50.333Z,1000.13
2019-02-11T06:42:20.502Z,1000.7
2019-02-11T06:45:50.873Z,1001.63
2019-02-11T06:49:21.052Z,1002.35
2019-02-11T06:52:51.290Z,1003.39
2019-02-11T06:56:21.419Z,1004.41
2019-02-11T06:59:51.546Z,1004.67
2019-02-11T07:03:21.677Z,1004.45
2019-02-11T07:06:52.684Z,1003.84
2019-02-11T07:10:22.798Z,1003.78
2019-02-11T07:13:53.005Z,1003.07
2019-02-11T07:17:23.198Z,1003.28
2019-02-11T07:20:53.375Z,1003.6
2019-02-11T07:24:23.414Z,1004.36
2019-02-11T07:27:53.562Z,1004.6
2019-02-11T07:31:23.613Z,1005.12
2019-02-11T07:34:53.716Z,1006.05
2019-02-11T07:38:23.921Z,1006.6
2019-02-11T07:42:16.860Z,1007.02
2019-02-11T07:46:06.904Z,1006.87
2019-02-11T07:49:37.058Z,1006.17
2019-02-11T07:53:07.109Z,1006.56
2019-02-11T07:56:37.187Z,1006.27
2019-02-11T08:00:13.335Z,1006.36
2019-02-11T08:03:43.466Z,1006.94
2019-02-11T08:07:14.505Z,1007.3
2019-02-11T08:10:44.734Z,1007.38
2019-02-11T08:14:14.874Z,1007.51
2019-02-11T08:17:46.782Z,1007.56
2019-02-11T08:21:17.003Z,1007.57
2019-02-11T08:24:47.162Z,1008.24
2019-02-11T08:28:19.615Z,1009.88
2019-02-11T08:31:49.940Z,1010.66
2019-02-11T08:35:20.018Z,1011.35
2019-02-11T08:38:50.228Z,1011.41
2019-02-11T08:42:20.271Z,1010.98
2019-02-11T08:45:50.359Z,1010.57
2019-02-11T08:49:20.497Z,1010.74
2019-02-11T08:52:50.647Z,1010.21
2019-02-11T08:56:20.806Z,1010.49
2019-02-11T08:59:50.894Z,1011
2019-02-11T09:03:20.921Z,1010.64
2019-02-11T09:06:51.102Z,1010.68
2019-02-11T09:10:22.202Z,1011.4
2019-02-11T09:13:52.372Z,1011.89
2019-02-11T09:17:22.422Z,1012.66
2019-02-11T09:20:52.660Z,1011.76
2019-02-11T09:24:22.759Z,1011.2
2019-02-11T09:27:52.951Z,1010.95
2019-02-11T09:31:23.089Z,1011.7
2019-02-11T09:34:53.287Z,1013.26
2019-02-11T09:38:23.426Z,1013.72
2019-02-11T09:41:53.531Z,1015.26
2019-02-11T09:45:24.296Z,1015.33
2019-02-11T09:48:54.616Z,1014.64
2019-02-11T09:52:24.696Z,1014.39
2019-02-11T09:55:54.833Z,1015.43
2019-02-11T09:59:24.925Z,1016.99
2019-02-11T10:00:16.372Z,1017.34
2019-02-11T10:03:46.512Z,1018.4
2019-02-11T10:07:16.662Z,1019
2019-02-11T10:10:47.831Z,1018.7
2019-02-11T10:14:17.922Z,1018.74
2019-02-11T10:17:48.100Z,1019.82
2019-02-11T10:21:18.208Z,1018.7
2019-02-11T10:24:48.309Z,1018.42
2019-02-11T10:28:18.388Z,1018.53
2019-02-11T10:31:48.478Z,1018.87
2019-02-11T10:35:18.699Z,1019.58
2019-02-11T10:38:48.757Z,1020.08
2019-02-11T10:42:18.906Z,1021.07
2019-02-11T10:45:49.036Z,1021.99
2019-02-11T10:49:19.165Z,1021.08
2019-02-11T10:52:49.324Z,1021.22
2019-02-11T10:56:19.433Z,1022.72
2019-02-11T10:59:49.553Z,1023.99
2019-02-11T11:03:19.713Z,1023.98
2019-02-11T11:06:49.863Z,1025.5
2019-02-11T11:10:24.500Z,1027.14
2019-02-11T11:13:55.873Z,1028.06
2019-02-11T11:17:25.951Z,1030.73
2019-02-11T11:20:56.063Z,1032.01
2019-02-11T11:24:26.510Z,1030.42
2019-02-11T11:27:56.830Z,1028.02
2019-02-11T11:31:26.924Z,1028.49
2019-02-11T11:34:57.019Z,1028.1
2019-02-11T11:38:27.168Z,1028.27
2019-02-11T11:41:57.377Z,1028.91
2019-02-11T11:45:27.924Z,1029.73
2019-02-11T11:48:58.196Z,1031.59
2019-02-11T11:52:28.333Z,1033.22
2019-02-11T11:56:02.127Z,1031.58
2019-02-11T11:59:33.135Z,1033.05
2019-02-11T12:00:20.797Z,1032.8
2019-02-11T12:03:51.077Z,1033.03
2019-02-11T12:07:21.269Z,1032
2019-02-11T12:10:51.606Z,1032.71
2019-02-11T12:14:22.667Z,1033.86
2019-02-11T12:17:52.959Z,1036.73
2019-02-11T12:21:23.015Z,1039.72
2019-02-11T12:24:53.232Z,1040.77
2019-02-11T12:28:23.440Z,1040.74
2019-02-11T12:31:53.607Z,1041.23
2019-02-11T12:35:23.766Z,1037.4
2019-02-11T12:38:53.787Z,1034.86
2019-02-11T12:42:23.868Z,1035.05
2019-02-11T12:45:53.968Z,1036.96
2019-02-11T12:49:24.183Z,1038.09
2019-02-11T12:52:54.349Z,1037.3
2019-02-11T12:56:24.367Z,1036.51
2019-02-11T12:59:54.478Z,1035.1
2019-02-11T13:03:24.599Z,1033.71
2019-02-11T13:06:54.711Z,1032.25
2019-02-11T13:10:25.271Z,1030.61
2019-02-11T13:13:55.472Z,1029.9
2019-02-11T13:17:33.733Z,1029.72
2019-02-11T13:21:05.148Z,1029.79
2019-02-11T13:24:35.180Z,1029.57
2019-02-11T13:28:05.305Z,1029.36
2019-02-11T13:31:35.489Z,1029.66
2019-02-11T13:35:05.837Z,1030.1
2019-02-11T13:38:35.939Z,1029.98
2019-02-11T13:42:06.147Z,1029.5
2019-02-11T13:45:36.276Z,1030.06
2019-02-11T13:49:07.729Z,1031.35
2019-02-11T13:52:37.742Z,1031.84
2019-02-11T13:56:07.901Z,1032.36
2019-02-11T13:59:38.177Z,1033.34
2019-02-11T14:00:21.114Z,1033.53
2019-02-11T14:03:51.323Z,1035.37
2019-02-11T14:07:21.430Z,1036.97
2019-02-11T14:10:51.698Z,1037.58
2019-02-11T14:14:29.309Z,1036.25
2019-02-11T14:18:13.382Z,1034.76
2019-02-11T14:21:44.779Z,1033.41
2019-02-11T14:25:14.979Z,1033.24
2019-02-11T14:28:45.099Z,1032.48
2019-02-11T14:32:15.263Z,1032.52
2019-02-11T14:35:45.478Z,1033.23
2019-02-11T14:39:15.607Z,1033.34
2019-02-11T14:42:45.745Z,1032.54
2019-02-11T14:46:15.757Z,1031.98
2019-02-11T14:49:45.912Z,1032.16
2019-02-11T14:53:15.986Z,1031.4
2019-02-11T14:56:46.152Z,1030.56
2019-02-11T15:00:18.307Z,1029.88
2019-02-11T15:03:48.451Z,1028.84
2019-02-11T15:07:18.629Z,1027.86
2019-02-11T15:10:48.778Z,1026.48
2019-02-11T15:14:18.947Z,1025.06
2019-02-11T15:17:48.978Z,1022.73
2019-02-11T15:21:20.056Z,1021.74
2019-02-11T15:24:50.114Z,1021.56
2019-02-11T15:28:20.263Z,1021.27
2019-02-11T15:31:50.431Z,1021.03
2019-02-11T15:35:20.542Z,1021.46
2019-02-11T15:38:50.599Z,1021.19
2019-02-11T15:42:20.728Z,1021.13
2019-02-11T15:45:50.797Z,1021.55
2019-02-11T15:49:20.946Z,1021.65
2019-02-11T15:52:51.139Z,1021.8
2019-02-11T15:56:21.220Z,1021.91
2019-02-11T15:59:51.332Z,1021.7
2019-02-11T16:00:18.152Z,1021.68
2019-02-11T16:03:48.291Z,1020.42
2019-02-11T16:07:18.376Z,1020.57
2019-02-11T16:10:48.529Z,1020.83
2019-02-11T16:14:18.538Z,1020.86
2019-02-11T16:17:48.576Z,1019.9
2019-02-11T16:21:18.765Z,1019.84
2019-02-11T16:24:49.084Z,1019.78
2019-02-11T16:28:19.313Z,1019.83
2019-02-11T16:31:49.392Z,1019.7
2019-02-11T16:35:19.561Z,1019.76
2019-02-11T16:38:49.763Z,1019.92
2019-02-11T16:42:19.900Z,1019.4
2019-02-11T16:45:50.059Z,1019.09
2019-02-11T16:49:20.146Z,1018.5
2019-02-11T16:52:50.245Z,1017.9
2019-02-11T16:56:20.314Z,1017.84
2019-02-11T16:59:50.383Z,1017.42
2019-02-11T17:03:20.472Z,1017.48
2019-02-11T17:06:50.583Z,1017.6
2019-02-11T17:10:20.660Z,1017.8
2019-02-11T17:13:50.728Z,1017.72
2019-02-11T17:17:20.907Z,1017.71
2019-02-11T17:20:51.007Z,1018.61
2019-02-11T17:24:21.096Z,1019.24
2019-02-11T17:27:52.064Z,1019.41
2019-02-11T17:31:22.193Z,1019.29
2019-02-11T17:34:52.372Z,1019.14
2019-02-11T17:38:22.450Z,1019.01
2019-02-11T17:41:52.554Z,1019.11
2019-02-11T17:45:23.399Z,1019.16
2019-02-11T17:48:53.637Z,1019.13
2019-02-11T17:52:23.826Z,1019.15
2019-02-11T17:55:53.977Z,1018.86
2019-02-11T17:59:24.038Z,1018.91
2019-02-11T18:00:27.301Z,1019.15
2019-02-11T18:03:57.375Z,1019.85
2019-02-11T18:07:27.533Z,1019.58
2019-02-11T18:10:57.672Z,1019.68
2019-02-11T18:14:27.664Z,1019.9
2019-02-11T18:17:57.788Z,1020.05
2019-02-11T18:21:27.816Z,1019.79
2019-02-11T18:24:57.925Z,1020.15
2019-02-11T18:28:29.065Z,1019.71
2019-02-11T18:31:59.194Z,1019.76
2019-02-11T18:35:29.342Z,1019.24
2019-02-11T18:38:59.441Z,1018.86
2019-02-11T18:42:29.632Z,1018.97
2019-02-11T18:45:59.859Z,1018.96
2019-02-11T18:49:34.562Z,1018.69
2019-02-11T18:53:05.039Z,1018.74
2019-02-11T18:56:35.255Z,1018.5
2019-02-11T19:00:05.904Z,1017.99
2019-02-11T19:03:36.046Z,1017.57
2019-02-11T19:07:06.231Z,1017.64
2019-02-11T19:10:36.444Z,1017.38
2019-02-11T19:14:06.569Z,1017.2
2019-02-11T19:17:36.988Z,1016.19
2019-02-11T19:21:07.067Z,1015.91
2019-02-11T19:24:37.175Z,1014.93
2019-02-11T19:28:07.374Z,1015.01
2019-02-11T19:31:38.353Z,1014.65
2019-02-11T19:35:08.502Z,1014.8
2019-02-11T19:38:38.621Z,1014.4
2019-02-11T19:42:08.840Z,1014.44
2019-02-11T19:45:38.898Z,1014.54
2019-02-11T19:49:08.997Z,1014.62
2019-02-11T19:52:38.968Z,1014.4
2019-02-11T19:56:09.185Z,1014.26
2019-02-11T19:59:39.263Z,1013.96
2019-02-11T20:00:17.903Z,1014.1
2019-02-11T20:03:48.002Z,1014.09
2019-02-11T20:07:18.051Z,1014.25
2019-02-11T20:10:48.190Z,1014.31
2019-02-11T20:14:18.189Z,1014.34
2019-02-11T20:17:48.378Z,1014.37
2019-02-11T20:21:18.506Z,1014.49
2019-02-11T20:24:48.695Z,1014.4
2019-02-11T20:28:18.737Z,1014.52
2019-02-11T20:31:49.868Z,1014.56
2019-02-11T20:35:20.012Z,1014.66
2019-02-11T20:38:50.180Z,1014.61
2019-02-11T20:42:20.319Z,1014.77
2019-02-11T20:45:50.480Z,1014.66
2019-02-11T20:49:20.586Z,1014.57
2019-02-11T20:52:50.695Z,1015.01
2019-02-11T20:56:20.884Z,1014.98
2019-02-11T20:59:51.023Z,1015.12
2019-02-11T21:03:21.094Z,1015.34
2019-02-11T21:06:51.300Z,1015.49
2019-02-11T21:10:21.484Z,1015.89
2019-02-11T21:13:51.668Z,1016.1
2019-02-11T21:17:21.791Z,1016.11
2019-02-11T21:20:51.895Z,1016.31
2019-02-11T21:24:22.015Z,1016.13
2019-02-11T21:27:52.104Z,1016.26
2019-02-11T21:31:22.202Z,1016.23
2019-02-11T21:34:53.271Z,1016.26
2019-02-11T21:38:23.400Z,1016.54
2019-02-11T21:41:53.539Z,1016.61
2019-02-11T21:45:23.622Z,1016.67
2019-02-11T21:48:53.763Z,1016.76
2019-02-11T21:52:24.011Z,1016.84
2019-02-11T21:55:54.187Z,1016.52
2019-02-11T21:59:24.203Z,1016.32
2019-02-11T22:00:17.132Z,1016.48
2019-02-11T22:03:47.231Z,1016.6
2019-02-11T22:07:17.390Z,1016.61
2019-02-11T22:10:47.490Z,1016.45
2019-02-11T22:14:17.543Z,1016.5
2019-02-11T22:17:47.549Z,1016.33
2019-02-11T22:21:17.583Z,1016.33
2019-02-11T22:24:47.877Z,1016.43
2019-02-11T22:28:17.933Z,1016.42
2019-02-11T22:31:48.052Z,1016.69
2019-02-11T22:35:19.071Z,1016.87
2019-02-11T22:38:49.169Z,1016.79
2019-02-11T22:42:19.288Z,1017.13
2019-02-11T22:45:49.467Z,1016.97
2019-02-11T22:49:19.606Z,1017.08
2019-02-11T22:52:49.711Z,1017.12
2019-02-11T22:56:19.903Z,1017.11
2019-02-11T22:59:50.127Z,1017.49
2019-02-11T23:03:20.252Z,1017.71
2019-02-11T23:06:50.489Z,1017.94
2019-02-11T23:10:20.668Z,1018.1
2019-02-11T23:13:50.763Z,1018.18
2019-02-11T23:17:20.863Z,1018.18
2019-02-11T23:20:52.301Z,1018.31
2019-02-11T23:24:22.420Z,1018.32
2019-02-11T23:27:52.633Z,1018.35
2019-02-11T23:31:22.672Z,1018.37
2019-02-11T23:34:52.776Z,1018.32
2019-02-11T23:38:23.964Z,1018.29
2019-02-11T23:41:54.138Z,1018.35
2019-02-11T23:45:24.122Z,1018.54
2019-02-11T23:48:54.326Z,1018.89
2019-02-11T23:52:24.335Z,1018.76
2019-02-11T23:55:54.424Z,1018.75
2019-02-11T23:59:24.578Z,1018.82
